sensor_id;sensor_type;location;lat;lon;timestamp;P1;durP1;ratioP1;P2;durP2;ratioP2
47760;SDS011;33524;55.434;38.520;2023-06-26T00:00:26;26.20;;;17.52;;
47760;SDS011;33524;55.434;38.520;2023-06-26T00:02:54;17.58;;;13.45;;
47760;SDS011;33524;55.434;38.520;2023-06-26T00:05:22;17.25;;;12.65;;
47760;SDS011;33524;55.434;38.520;2023-06-26T00:07:53;24.92;;;18.05;;
47760;SDS011;33524;55.434;38.520;2023-06-26T00:10:25;21.42;;;15.70;;
47760;SDS011;33524;55.434;38.520;2023-06-26T00:12:55;26.62;;;17.23;;
47760;SDS011;33524;55.434;38.520;2023-06-26T00:15:24;31.92;;;22.00;;
47760;SDS011;33524;55.434;38.520;2023-06-26T00:17:52;34.72;;;24.45;;
47760;SDS011;33524;55.434;38.520;2023-06-26T00:20:20;31.98;;;21.83;;
47760;SDS011;33524;55.434;38.520;2023-06-26T00:22:51;33.28;;;21.92;;
47760;SDS011;33524;55.434;38.520;2023-06-26T00:25:21;29.87;;;20.62;;
47760;SDS011;33524;55.434;38.520;2023-06-26T00:27:49;32.08;;;22.30;;
47760;SDS011;33524;55.434;38.520;2023-06-26T00:30:17;39.80;;;26.90;;
47760;SDS011;33524;55.434;38.520;2023-06-26T00:32:45;25.45;;;17.45;;
47760;SDS011;33524;55.434;38.520;2023-06-26T00:35:14;23.35;;;17.98;;
47760;SDS011;33524;55.434;38.520;2023-06-26T00:37:44;33.08;;;23.83;;
47760;SDS011;33524;55.434;38.520;2023-06-26T00:40:12;30.50;;;20.85;;
47760;SDS011;33524;55.434;38.520;2023-06-26T00:42:40;36.85;;;24.52;;
47760;SDS011;33524;55.434;38.520;2023-06-26T00:45:08;33.95;;;23.45;;
47760;SDS011;33524;55.434;38.520;2023-06-26T00:47:36;31.05;;;21.77;;
47760;SDS011;33524;55.434;38.520;2023-06-26T00:50:05;26.37;;;19.92;;
47760;SDS011;33524;55.434;38.520;2023-06-26T00:52:34;32.33;;;21.85;;
47760;SDS011;33524;55.434;38.520;2023-06-26T00:55:05;26.17;;;18.80;;
47760;SDS011;33524;55.434;38.520;2023-06-26T00:57:35;24.15;;;18.05;;
47760;SDS011;33524;55.434;38.520;2023-06-26T01:00:03;28.00;;;19.65;;
47760;SDS011;33524;55.434;38.520;2023-06-26T01:02:33;23.50;;;17.20;;
47760;SDS011;33524;55.434;38.520;2023-06-26T01:05:01;24.90;;;17.25;;
47760;SDS011;33524;55.434;38.520;2023-06-26T01:07:35;23.20;;;14.82;;
47760;SDS011;33524;55.434;38.520;2023-06-26T01:10:05;18.05;;;13.93;;
47760;SDS011;33524;55.434;38.520;2023-06-26T01:12:34;17.90;;;12.85;;
47760;SDS011;33524;55.434;38.520;2023-06-26T01:15:06;21.27;;;15.02;;
47760;SDS011;33524;55.434;38.520;2023-06-26T01:17:36;19.27;;;15.90;;
47760;SDS011;33524;55.434;38.520;2023-06-26T01:20:14;18.17;;;13.65;;
47760;SDS011;33524;55.434;38.520;2023-06-26T01:22:58;23.20;;;17.08;;
47760;SDS011;33524;55.434;38.520;2023-06-26T01:28:18;30.58;;;20.02;;
47760;SDS011;33524;55.434;38.520;2023-06-26T01:30:49;25.83;;;18.90;;
47760;SDS011;33524;55.434;38.520;2023-06-26T01:33:18;28.33;;;19.65;;
47760;SDS011;33524;55.434;38.520;2023-06-26T01:35:51;30.92;;;20.62;;
47760;SDS011;33524;55.434;38.520;2023-06-26T01:38:20;27.87;;;19.45;;
47760;SDS011;33524;55.434;38.520;2023-06-26T01:40:56;18.73;;;14.38;;
47760;SDS011;33524;55.434;38.520;2023-06-26T01:45:56;15.98;;;13.05;;
47760;SDS011;33524;55.434;38.520;2023-06-26T01:48:30;14.68;;;10.40;;
47760;SDS011;33524;55.434;38.520;2023-06-26T01:51:03;18.27;;;13.23;;
47760;SDS011;33524;55.434;38.520;2023-06-26T01:53:38;19.10;;;14.43;;
47760;SDS011;33524;55.434;38.520;2023-06-26T01:56:14;19.00;;;14.02;;
47760;SDS011;33524;55.434;38.520;2023-06-26T01:58:47;24.00;;;17.45;;
47760;SDS011;33524;55.434;38.520;2023-06-26T02:01:16;24.40;;;16.67;;
47760;SDS011;33524;55.434;38.520;2023-06-26T02:03:45;17.62;;;14.25;;
47760;SDS011;33524;55.434;38.520;2023-06-26T02:06:14;16.15;;;11.63;;
47760;SDS011;33524;55.434;38.520;2023-06-26T02:08:42;13.85;;;10.63;;
47760;SDS011;33524;55.434;38.520;2023-06-26T02:11:10;14.13;;;10.75;;
47760;SDS011;33524;55.434;38.520;2023-06-26T02:13:39;15.27;;;10.90;;
47760;SDS011;33524;55.434;38.520;2023-06-26T02:16:10;17.83;;;12.07;;
47760;SDS011;33524;55.434;38.520;2023-06-26T02:18:44;19.08;;;12.88;;
47760;SDS011;33524;55.434;38.520;2023-06-26T02:21:12;14.25;;;11.63;;
47760;SDS011;33524;55.434;38.520;2023-06-26T02:23:41;17.67;;;12.93;;
47760;SDS011;33524;55.434;38.520;2023-06-26T02:26:12;19.30;;;14.10;;
47760;SDS011;33524;55.434;38.520;2023-06-26T02:28:42;19.48;;;13.52;;
47760;SDS011;33524;55.434;38.520;2023-06-26T02:31:11;19.65;;;12.75;;
47760;SDS011;33524;55.434;38.520;2023-06-26T02:33:41;13.52;;;12.13;;
47760;SDS011;33524;55.434;38.520;2023-06-26T02:36:09;19.05;;;11.75;;
47760;SDS011;33524;55.434;38.520;2023-06-26T02:38:43;18.12;;;11.93;;
47760;SDS011;33524;55.434;38.520;2023-06-26T02:41:11;17.98;;;14.05;;
47760;SDS011;33524;55.434;38.520;2023-06-26T02:43:39;15.68;;;10.40;;
47760;SDS011;33524;55.434;38.520;2023-06-26T02:46:07;11.40;;;8.50;;
47760;SDS011;33524;55.434;38.520;2023-06-26T02:48:38;11.52;;;8.20;;
47760;SDS011;33524;55.434;38.520;2023-06-26T02:51:07;14.73;;;10.55;;
47760;SDS011;33524;55.434;38.520;2023-06-26T02:53:35;11.70;;;8.98;;
47760;SDS011;33524;55.434;38.520;2023-06-26T02:56:04;17.23;;;11.05;;
47760;SDS011;33524;55.434;38.520;2023-06-26T02:58:34;10.10;;;8.30;;
47760;SDS011;33524;55.434;38.520;2023-06-26T03:01:02;16.25;;;13.27;;
47760;SDS011;33524;55.434;38.520;2023-06-26T03:03:30;13.85;;;10.70;;
47760;SDS011;33524;55.434;38.520;2023-06-26T03:06:09;11.12;;;8.60;;
47760;SDS011;33524;55.434;38.520;2023-06-26T03:08:37;13.45;;;8.98;;
47760;SDS011;33524;55.434;38.520;2023-06-26T03:11:08;13.27;;;9.02;;
47760;SDS011;33524;55.434;38.520;2023-06-26T03:13:37;16.67;;;12.13;;
47760;SDS011;33524;55.434;38.520;2023-06-26T03:16:05;13.52;;;9.30;;
47760;SDS011;33524;55.434;38.520;2023-06-26T03:18:33;8.63;;;6.10;;
47760;SDS011;33524;55.434;38.520;2023-06-26T03:21:02;16.73;;;10.02;;
47760;SDS011;33524;55.434;38.520;2023-06-26T03:23:30;15.93;;;10.48;;
47760;SDS011;33524;55.434;38.520;2023-06-26T03:25:58;17.02;;;13.48;;
47760;SDS011;33524;55.434;38.520;2023-06-26T03:28:30;13.75;;;11.38;;
47760;SDS011;33524;55.434;38.520;2023-06-26T03:30:59;13.82;;;10.10;;
47760;SDS011;33524;55.434;38.520;2023-06-26T03:33:31;12.05;;;7.95;;
47760;SDS011;33524;55.434;38.520;2023-06-26T03:35:59;15.43;;;11.55;;
47760;SDS011;33524;55.434;38.520;2023-06-26T03:38:27;16.95;;;11.75;;
47760;SDS011;33524;55.434;38.520;2023-06-26T03:40:56;16.70;;;10.65;;
47760;SDS011;33524;55.434;38.520;2023-06-26T03:43:25;14.52;;;10.10;;
47760;SDS011;33524;55.434;38.520;2023-06-26T03:45:54;12.85;;;10.27;;
47760;SDS011;33524;55.434;38.520;2023-06-26T03:48:22;12.93;;;8.40;;
47760;SDS011;33524;55.434;38.520;2023-06-26T03:50:51;14.60;;;9.65;;
47760;SDS011;33524;55.434;38.520;2023-06-26T03:53:19;13.95;;;9.70;;
47760;SDS011;33524;55.434;38.520;2023-06-26T03:55:47;10.95;;;8.20;;
47760;SDS011;33524;55.434;38.520;2023-06-26T03:58:15;11.60;;;9.10;;
47760;SDS011;33524;55.434;38.520;2023-06-26T04:00:43;11.15;;;8.57;;
47760;SDS011;33524;55.434;38.520;2023-06-26T04:03:12;10.45;;;7.90;;
47760;SDS011;33524;55.434;38.520;2023-06-26T04:05:41;9.77;;;7.10;;
47760;SDS011;33524;55.434;38.520;2023-06-26T04:08:09;10.63;;;8.07;;
47760;SDS011;33524;55.434;38.520;2023-06-26T04:10:37;6.40;;;5.10;;
47760;SDS011;33524;55.434;38.520;2023-06-26T04:13:05;11.40;;;7.72;;
47760;SDS011;33524;55.434;38.520;2023-06-26T04:15:33;10.13;;;7.90;;
47760;SDS011;33524;55.434;38.520;2023-06-26T04:18:02;9.88;;;7.30;;
47760;SDS011;33524;55.434;38.520;2023-06-26T04:20:30;9.00;;;6.32;;
47760;SDS011;33524;55.434;38.520;2023-06-26T04:22:58;5.45;;;4.12;;
47760;SDS011;33524;55.434;38.520;2023-06-26T04:25:26;10.50;;;7.00;;
47760;SDS011;33524;55.434;38.520;2023-06-26T04:27:59;9.75;;;6.55;;
47760;SDS011;33524;55.434;38.520;2023-06-26T04:30:28;8.10;;;5.50;;
47760;SDS011;33524;55.434;38.520;2023-06-26T04:32:56;6.10;;;4.87;;
47760;SDS011;33524;55.434;38.520;2023-06-26T04:35:26;7.90;;;5.78;;
47760;SDS011;33524;55.434;38.520;2023-06-26T04:37:54;7.70;;;5.60;;
47760;SDS011;33524;55.434;38.520;2023-06-26T04:40:22;5.87;;;4.43;;
47760;SDS011;33524;55.434;38.520;2023-06-26T04:42:54;7.93;;;5.62;;
47760;SDS011;33524;55.434;38.520;2023-06-26T04:45:22;11.48;;;7.00;;
47760;SDS011;33524;55.434;38.520;2023-06-26T04:47:50;10.25;;;5.47;;
47760;SDS011;33524;55.434;38.520;2023-06-26T04:50:18;10.65;;;6.47;;
47760;SDS011;33524;55.434;38.520;2023-06-26T04:52:47;8.15;;;4.37;;
47760;SDS011;33524;55.434;38.520;2023-06-26T04:55:15;8.18;;;6.32;;
47760;SDS011;33524;55.434;38.520;2023-06-26T04:57:43;8.35;;;5.65;;
47760;SDS011;33524;55.434;38.520;2023-06-26T05:00:11;8.05;;;5.78;;
47760;SDS011;33524;55.434;38.520;2023-06-26T05:02:40;6.10;;;5.20;;
47760;SDS011;33524;55.434;38.520;2023-06-26T05:05:08;9.02;;;5.60;;
47760;SDS011;33524;55.434;38.520;2023-06-26T05:07:37;7.32;;;5.68;;
47760;SDS011;33524;55.434;38.520;2023-06-26T05:10:06;8.55;;;6.18;;
47760;SDS011;33524;55.434;38.520;2023-06-26T05:12:34;6.18;;;4.30;;
47760;SDS011;33524;55.434;38.520;2023-06-26T05:15:02;7.37;;;5.50;;
47760;SDS011;33524;55.434;38.520;2023-06-26T05:17:34;10.13;;;5.57;;
47760;SDS011;33524;55.434;38.520;2023-06-26T05:20:03;7.70;;;4.80;;
47760;SDS011;33524;55.434;38.520;2023-06-26T05:22:35;7.82;;;5.30;;
47760;SDS011;33524;55.434;38.520;2023-06-26T05:25:09;8.70;;;5.82;;
47760;SDS011;33524;55.434;38.520;2023-06-26T05:27:38;5.93;;;4.90;;
47760;SDS011;33524;55.434;38.520;2023-06-26T05:30:19;5.65;;;4.55;;
47760;SDS011;33524;55.434;38.520;2023-06-26T05:32:48;5.70;;;4.50;;
47760;SDS011;33524;55.434;38.520;2023-06-26T05:35:32;5.73;;;4.67;;
47760;SDS011;33524;55.434;38.520;2023-06-26T05:38:03;5.93;;;4.70;;
47760;SDS011;33524;55.434;38.520;2023-06-26T05:40:32;7.12;;;5.07;;
47760;SDS011;33524;55.434;38.520;2023-06-26T05:43:02;6.50;;;4.60;;
47760;SDS011;33524;55.434;38.520;2023-06-26T05:45:43;6.25;;;4.93;;
47760;SDS011;33524;55.434;38.520;2023-06-26T05:48:11;6.32;;;5.07;;
47760;SDS011;33524;55.434;38.520;2023-06-26T05:50:41;6.95;;;5.53;;
47760;SDS011;33524;55.434;38.520;2023-06-26T05:53:22;5.70;;;4.47;;
47760;SDS011;33524;55.434;38.520;2023-06-26T05:56:02;6.15;;;5.15;;
47760;SDS011;33524;55.434;38.520;2023-06-26T05:58:43;5.95;;;4.90;;
47760;SDS011;33524;55.434;38.520;2023-06-26T06:01:36;8.52;;;5.40;;
47760;SDS011;33524;55.434;38.520;2023-06-26T06:04:08;7.53;;;5.90;;
47760;SDS011;33524;55.434;38.520;2023-06-26T06:06:36;8.83;;;6.33;;
47760;SDS011;33524;55.434;38.520;2023-06-26T06:09:05;8.05;;;5.12;;
47760;SDS011;33524;55.434;38.520;2023-06-26T06:11:58;7.55;;;5.78;;
47760;SDS011;33524;55.434;38.520;2023-06-26T06:14:27;7.30;;;5.37;;
47760;SDS011;33524;55.434;38.520;2023-06-26T06:16:55;6.93;;;4.93;;
47760;SDS011;33524;55.434;38.520;2023-06-26T06:19:26;5.50;;;4.55;;
47760;SDS011;33524;55.434;38.520;2023-06-26T06:21:55;6.30;;;5.37;;
47760;SDS011;33524;55.434;38.520;2023-06-26T06:24:26;6.20;;;5.22;;
47760;SDS011;33524;55.434;38.520;2023-06-26T06:26:54;9.80;;;6.35;;
47760;SDS011;33524;55.434;38.520;2023-06-26T06:29:34;6.95;;;6.05;;
47760;SDS011;33524;55.434;38.520;2023-06-26T06:32:15;7.20;;;5.82;;
47760;SDS011;33524;55.434;38.520;2023-06-26T06:37:23;8.90;;;5.70;;
47760;SDS011;33524;55.434;38.520;2023-06-26T06:39:51;6.00;;;4.70;;
47760;SDS011;33524;55.434;38.520;2023-06-26T06:42:44;7.22;;;5.87;;
47760;SDS011;33524;55.434;38.520;2023-06-26T06:45:12;4.93;;;3.65;;
47760;SDS011;33524;55.434;38.520;2023-06-26T06:47:43;6.90;;;4.57;;
47760;SDS011;33524;55.434;38.520;2023-06-26T06:50:11;6.82;;;4.62;;
47760;SDS011;33524;55.434;38.520;2023-06-26T06:52:51;5.45;;;4.40;;
47760;SDS011;33524;55.434;38.520;2023-06-26T06:55:22;5.57;;;4.20;;
47760;SDS011;33524;55.434;38.520;2023-06-26T06:57:51;5.62;;;4.18;;
47760;SDS011;33524;55.434;38.520;2023-06-26T07:00:19;7.25;;;4.35;;
47760;SDS011;33524;55.434;38.520;2023-06-26T07:03:00;6.28;;;4.90;;
47760;SDS011;33524;55.434;38.520;2023-06-26T07:05:31;4.82;;;3.80;;
47760;SDS011;33524;55.434;38.520;2023-06-26T07:07:59;6.23;;;5.43;;
47760;SDS011;33524;55.434;38.520;2023-06-26T07:10:53;6.32;;;5.37;;
47760;SDS011;33524;55.434;38.520;2023-06-26T07:13:21;5.43;;;4.68;;
47760;SDS011;33524;55.434;38.520;2023-06-26T07:16:14;5.57;;;4.18;;
47760;SDS011;33524;55.434;38.520;2023-06-26T07:19:06;4.97;;;4.10;;
47760;SDS011;33524;55.434;38.520;2023-06-26T07:21:36;4.62;;;3.70;;
47760;SDS011;33524;55.434;38.520;2023-06-26T07:24:06;5.00;;;4.47;;
47760;SDS011;33524;55.434;38.520;2023-06-26T07:26:48;6.05;;;5.07;;
47760;SDS011;33524;55.434;38.520;2023-06-26T07:29:17;6.15;;;3.10;;
47760;SDS011;33524;55.434;38.520;2023-06-26T07:31:57;5.87;;;4.45;;
47760;SDS011;33524;55.434;38.520;2023-06-26T07:34:26;7.00;;;4.82;;
47760;SDS011;33524;55.434;38.520;2023-06-26T07:37:05;5.37;;;3.28;;
47760;SDS011;33524;55.434;38.520;2023-06-26T07:39:35;4.75;;;3.85;;
47760;SDS011;33524;55.434;38.520;2023-06-26T07:42:03;4.87;;;4.30;;
47760;SDS011;33524;55.434;38.520;2023-06-26T07:44:53;11.95;;;8.50;;
47760;SDS011;33524;55.434;38.520;2023-06-26T07:47:21;6.55;;;4.18;;
47760;SDS011;33524;55.434;38.520;2023-06-26T07:49:49;5.85;;;3.97;;
47760;SDS011;33524;55.434;38.520;2023-06-26T07:52:30;6.47;;;4.20;;
47760;SDS011;33524;55.434;38.520;2023-06-26T07:54:58;4.12;;;3.17;;
47760;SDS011;33524;55.434;38.520;2023-06-26T07:57:57;7.45;;;4.90;;
47760;SDS011;33524;55.434;38.520;2023-06-26T08:00:26;5.20;;;4.28;;
47760;SDS011;33524;55.434;38.520;2023-06-26T08:03:06;4.40;;;2.92;;
47760;SDS011;33524;55.434;38.520;2023-06-26T08:05:47;4.68;;;3.53;;
47760;SDS011;33524;55.434;38.520;2023-06-26T08:08:31;4.60;;;3.60;;
47760;SDS011;33524;55.434;38.520;2023-06-26T08:11:02;4.60;;;3.83;;
47760;SDS011;33524;55.434;38.520;2023-06-26T08:13:33;5.03;;;3.72;;
47760;SDS011;33524;55.434;38.520;2023-06-26T08:16:01;3.95;;;3.17;;
47760;SDS011;33524;55.434;38.520;2023-06-26T08:18:29;4.80;;;3.83;;
47760;SDS011;33524;55.434;38.520;2023-06-26T08:20:57;5.70;;;4.05;;
47760;SDS011;33524;55.434;38.520;2023-06-26T08:23:25;4.55;;;3.67;;
47760;SDS011;33524;55.434;38.520;2023-06-26T08:25:53;4.65;;;3.70;;
47760;SDS011;33524;55.434;38.520;2023-06-26T08:28:34;4.57;;;3.75;;
47760;SDS011;33524;55.434;38.520;2023-06-26T08:31:14;4.68;;;3.87;;
47760;SDS011;33524;55.434;38.520;2023-06-26T08:33:55;4.72;;;3.83;;
47760;SDS011;33524;55.434;38.520;2023-06-26T08:36:35;5.47;;;3.97;;
47760;SDS011;33524;55.434;38.520;2023-06-26T08:39:18;4.87;;;4.15;;
47760;SDS011;33524;55.434;38.520;2023-06-26T08:42:01;5.45;;;4.20;;
47760;SDS011;33524;55.434;38.520;2023-06-26T08:44:54;4.40;;;3.83;;
47760;SDS011;33524;55.434;38.520;2023-06-26T08:47:33;5.47;;;3.78;;
47760;SDS011;33524;55.434;38.520;2023-06-26T08:50:12;3.47;;;2.95;;
47760;SDS011;33524;55.434;38.520;2023-06-26T08:52:56;4.07;;;3.47;;
47760;SDS011;33524;55.434;38.520;2023-06-26T08:55:47;4.62;;;3.72;;
47760;SDS011;33524;55.434;38.520;2023-06-26T08:58:29;4.82;;;4.32;;
47760;SDS011;33524;55.434;38.520;2023-06-26T09:01:10;5.07;;;3.50;;
47760;SDS011;33524;55.434;38.520;2023-06-26T09:03:51;4.07;;;3.58;;
47760;SDS011;33524;55.434;38.520;2023-06-26T09:06:20;5.32;;;4.05;;
47760;SDS011;33524;55.434;38.520;2023-06-26T09:09:00;3.85;;;3.22;;
47760;SDS011;33524;55.434;38.520;2023-06-26T09:11:41;4.50;;;3.50;;
47760;SDS011;33524;55.434;38.520;2023-06-26T09:14:09;4.30;;;3.87;;
47760;SDS011;33524;55.434;38.520;2023-06-26T09:16:53;5.40;;;3.90;;
47760;SDS011;33524;55.434;38.520;2023-06-26T09:19:36;7.53;;;4.47;;
47760;SDS011;33524;55.434;38.520;2023-06-26T09:22:17;6.00;;;3.80;;
47760;SDS011;33524;55.434;38.520;2023-06-26T09:24:45;4.22;;;3.37;;
47760;SDS011;33524;55.434;38.520;2023-06-26T09:27:14;3.97;;;3.22;;
47760;SDS011;33524;55.434;38.520;2023-06-26T09:29:45;3.90;;;3.08;;
47760;SDS011;33524;55.434;38.520;2023-06-26T09:32:14;4.32;;;3.42;;
47760;SDS011;33524;55.434;38.520;2023-06-26T09:34:58;4.43;;;3.47;;
47760;SDS011;33524;55.434;38.520;2023-06-26T09:37:38;4.05;;;3.17;;
47760;SDS011;33524;55.434;38.520;2023-06-26T09:40:07;4.47;;;3.40;;
47760;SDS011;33524;55.434;38.520;2023-06-26T09:42:36;3.78;;;2.90;;
47760;SDS011;33524;55.434;38.520;2023-06-26T09:45:05;4.22;;;3.20;;
47760;SDS011;33524;55.434;38.520;2023-06-26T09:47:36;4.65;;;2.95;;
47760;SDS011;33524;55.434;38.520;2023-06-26T09:50:04;4.43;;;3.10;;
47760;SDS011;33524;55.434;38.520;2023-06-26T09:52:49;3.85;;;3.05;;
47760;SDS011;33524;55.434;38.520;2023-06-26T09:55:19;4.60;;;3.42;;
47760;SDS011;33524;55.434;38.520;2023-06-26T09:57:50;5.93;;;3.12;;
47760;SDS011;33524;55.434;38.520;2023-06-26T10:00:19;7.22;;;3.87;;
47760;SDS011;33524;55.434;38.520;2023-06-26T10:03:00;3.83;;;2.83;;
47760;SDS011;33524;55.434;38.520;2023-06-26T10:05:29;4.28;;;2.92;;
47760;SDS011;33524;55.434;38.520;2023-06-26T10:07:57;4.45;;;3.37;;
47760;SDS011;33524;55.434;38.520;2023-06-26T10:10:26;4.45;;;3.78;;
47760;SDS011;33524;55.434;38.520;2023-06-26T10:12:57;3.78;;;2.45;;
47760;SDS011;33524;55.434;38.520;2023-06-26T10:15:40;4.93;;;3.67;;
47760;SDS011;33524;55.434;38.520;2023-06-26T10:18:38;4.85;;;3.55;;
47760;SDS011;33524;55.434;38.520;2023-06-26T10:21:08;5.53;;;4.45;;
47760;SDS011;33524;55.434;38.520;2023-06-26T10:23:38;5.00;;;4.22;;
47760;SDS011;33524;55.434;38.520;2023-06-26T10:26:20;4.25;;;3.62;;
47760;SDS011;33524;55.434;38.520;2023-06-26T10:29:01;5.18;;;3.50;;
47760;SDS011;33524;55.434;38.520;2023-06-26T10:31:31;4.37;;;3.47;;
47760;SDS011;33524;55.434;38.520;2023-06-26T10:34:01;4.45;;;3.05;;
47760;SDS011;33524;55.434;38.520;2023-06-26T10:36:30;6.12;;;3.50;;
47760;SDS011;33524;55.434;38.520;2023-06-26T10:39:06;3.95;;;3.15;;
47760;SDS011;33524;55.434;38.520;2023-06-26T10:41:38;5.70;;;3.45;;
47760;SDS011;33524;55.434;38.520;2023-06-26T10:44:39;4.47;;;3.37;;
47760;SDS011;33524;55.434;38.520;2023-06-26T10:47:12;3.70;;;3.00;;
47760;SDS011;33524;55.434;38.520;2023-06-26T10:53:22;4.85;;;3.40;;
47760;SDS011;33524;55.434;38.520;2023-06-26T10:56:07;4.30;;;3.45;;
47760;SDS011;33524;55.434;38.520;2023-06-26T11:01:18;4.37;;;3.62;;
47760;SDS011;33524;55.434;38.520;2023-06-26T11:04:00;4.65;;;3.83;;
47760;SDS011;33524;55.434;38.520;2023-06-26T11:06:35;4.50;;;3.90;;
47760;SDS011;33524;55.434;38.520;2023-06-26T11:09:23;5.00;;;4.47;;
47760;SDS011;33524;55.434;38.520;2023-06-26T11:11:55;5.45;;;4.30;;
47760;SDS011;33524;55.434;38.520;2023-06-26T11:14:32;4.95;;;4.12;;
47760;SDS011;33524;55.434;38.520;2023-06-26T11:17:04;5.87;;;4.45;;
47760;SDS011;33524;55.434;38.520;2023-06-26T11:19:33;5.03;;;3.55;;
47760;SDS011;33524;55.434;38.520;2023-06-26T11:22:04;5.75;;;3.72;;
47760;SDS011;33524;55.434;38.520;2023-06-26T11:24:33;8.30;;;4.55;;
47760;SDS011;33524;55.434;38.520;2023-06-26T11:27:02;7.15;;;4.47;;
47760;SDS011;33524;55.434;38.520;2023-06-26T11:29:32;7.45;;;5.00;;
47760;SDS011;33524;55.434;38.520;2023-06-26T11:32:01;5.47;;;4.43;;
47760;SDS011;33524;55.434;38.520;2023-06-26T11:34:33;14.32;;;5.78;;
47760;SDS011;33524;55.434;38.520;2023-06-26T11:37:17;8.85;;;4.82;;
47760;SDS011;33524;55.434;38.520;2023-06-26T11:39:48;5.90;;;4.18;;
47760;SDS011;33524;55.434;38.520;2023-06-26T11:42:16;6.65;;;4.20;;
47760;SDS011;33524;55.434;38.520;2023-06-26T11:44:46;6.57;;;4.53;;
47760;SDS011;33524;55.434;38.520;2023-06-26T11:47:21;5.90;;;4.12;;
47760;SDS011;33524;55.434;38.520;2023-06-26T11:49:50;5.10;;;4.18;;
47760;SDS011;33524;55.434;38.520;2023-06-26T11:52:18;5.80;;;4.18;;
47760;SDS011;33524;55.434;38.520;2023-06-26T11:54:59;6.00;;;4.10;;
47760;SDS011;33524;55.434;38.520;2023-06-26T11:57:30;6.70;;;4.10;;
47760;SDS011;33524;55.434;38.520;2023-06-26T11:59:58;9.45;;;3.95;;
47760;SDS011;33524;55.434;38.520;2023-06-26T12:02:40;6.20;;;4.57;;
47760;SDS011;33524;55.434;38.520;2023-06-26T12:05:08;6.53;;;4.70;;
47760;SDS011;33524;55.434;38.520;2023-06-26T12:07:38;6.12;;;4.68;;
47760;SDS011;33524;55.434;38.520;2023-06-26T12:10:18;5.30;;;4.20;;
47760;SDS011;33524;55.434;38.520;2023-06-26T12:12:48;8.07;;;4.62;;
47760;SDS011;33524;55.434;38.520;2023-06-26T12:15:16;6.47;;;4.40;;
47760;SDS011;33524;55.434;38.520;2023-06-26T12:17:44;5.35;;;3.95;;
47760;SDS011;33524;55.434;38.520;2023-06-26T12:20:22;6.22;;;4.80;;
47760;SDS011;33524;55.434;38.520;2023-06-26T12:22:52;6.50;;;4.80;;
47760;SDS011;33524;55.434;38.520;2023-06-26T12:25:22;6.85;;;5.25;;
47760;SDS011;33524;55.434;38.520;2023-06-26T12:27:51;6.30;;;4.97;;
47760;SDS011;33524;55.434;38.520;2023-06-26T12:30:19;6.72;;;4.15;;
47760;SDS011;33524;55.434;38.520;2023-06-26T12:32:48;6.18;;;4.47;;
47760;SDS011;33524;55.434;38.520;2023-06-26T12:35:16;5.60;;;4.80;;
47760;SDS011;33524;55.434;38.520;2023-06-26T12:37:46;7.35;;;5.47;;
47760;SDS011;33524;55.434;38.520;2023-06-26T12:40:26;6.65;;;4.70;;
47760;SDS011;33524;55.434;38.520;2023-06-26T12:42:54;5.55;;;4.90;;
47760;SDS011;33524;55.434;38.520;2023-06-26T12:45:23;5.82;;;4.10;;
47760;SDS011;33524;55.434;38.520;2023-06-26T12:48:12;5.18;;;4.28;;
47760;SDS011;33524;55.434;38.520;2023-06-26T12:50:43;6.57;;;4.97;;
47760;SDS011;33524;55.434;38.520;2023-06-26T12:53:24;4.75;;;3.85;;
47760;SDS011;33524;55.434;38.520;2023-06-26T12:55:52;8.02;;;4.78;;
47760;SDS011;33524;55.434;38.520;2023-06-26T12:58:21;5.68;;;4.35;;
47760;SDS011;33524;55.434;38.520;2023-06-26T13:00:49;6.78;;;4.50;;
47760;SDS011;33524;55.434;38.520;2023-06-26T13:03:27;5.35;;;3.95;;
47760;SDS011;33524;55.434;38.520;2023-06-26T13:05:57;5.45;;;3.90;;
47760;SDS011;33524;55.434;38.520;2023-06-26T13:08:27;5.35;;;4.10;;
47760;SDS011;33524;55.434;38.520;2023-06-26T13:13:24;5.45;;;3.60;;
47760;SDS011;33524;55.434;38.520;2023-06-26T13:15:53;4.70;;;3.42;;
47760;SDS011;33524;55.434;38.520;2023-06-26T13:18:21;5.07;;;4.00;;
47760;SDS011;33524;55.434;38.520;2023-06-26T13:20:49;7.70;;;4.40;;
47760;SDS011;33524;55.434;38.520;2023-06-26T13:23:17;4.65;;;3.28;;
47760;SDS011;33524;55.434;38.520;2023-06-26T13:25:46;7.43;;;4.35;;
47760;SDS011;33524;55.434;38.520;2023-06-26T13:28:17;5.40;;;3.62;;
47760;SDS011;33524;55.434;38.520;2023-06-26T13:30:46;7.53;;;3.95;;
47760;SDS011;33524;55.434;38.520;2023-06-26T13:33:14;3.75;;;3.20;;
47760;SDS011;33524;55.434;38.520;2023-06-26T13:35:41;5.50;;;3.67;;
47760;SDS011;33524;55.434;38.520;2023-06-26T13:38:10;6.07;;;4.05;;
47760;SDS011;33524;55.434;38.520;2023-06-26T13:40:41;5.25;;;3.85;;
47760;SDS011;33524;55.434;38.520;2023-06-26T13:43:09;5.07;;;3.95;;
47760;SDS011;33524;55.434;38.520;2023-06-26T13:45:38;5.07;;;4.30;;
47760;SDS011;33524;55.434;38.520;2023-06-26T13:48:06;6.05;;;4.12;;
47760;SDS011;33524;55.434;38.520;2023-06-26T13:50:47;5.62;;;3.80;;
47760;SDS011;33524;55.434;38.520;2023-06-26T13:53:20;4.72;;;3.75;;
47760;SDS011;33524;55.434;38.520;2023-06-26T13:55:52;4.68;;;3.72;;
47760;SDS011;33524;55.434;38.520;2023-06-26T13:58:20;5.85;;;3.97;;
47760;SDS011;33524;55.434;38.520;2023-06-26T14:00:50;7.47;;;4.40;;
47760;SDS011;33524;55.434;38.520;2023-06-26T14:03:21;5.23;;;3.50;;
47760;SDS011;33524;55.434;38.520;2023-06-26T14:05:49;5.25;;;4.47;;
47760;SDS011;33524;55.434;38.520;2023-06-26T14:08:20;4.80;;;3.70;;
47760;SDS011;33524;55.434;38.520;2023-06-26T14:10:49;4.18;;;3.37;;
47760;SDS011;33524;55.434;38.520;2023-06-26T14:13:30;4.22;;;3.83;;
47760;SDS011;33524;55.434;38.520;2023-06-26T14:15:58;6.00;;;4.55;;
47760;SDS011;33524;55.434;38.520;2023-06-26T14:18:26;5.50;;;3.62;;
47760;SDS011;33524;55.434;38.520;2023-06-26T14:21:08;5.55;;;3.87;;
47760;SDS011;33524;55.434;38.520;2023-06-26T14:23:37;6.70;;;4.20;;
47760;SDS011;33524;55.434;38.520;2023-06-26T14:26:17;5.07;;;4.05;;
47760;SDS011;33524;55.434;38.520;2023-06-26T14:28:45;5.43;;;3.85;;
47760;SDS011;33524;55.434;38.520;2023-06-26T14:31:14;4.50;;;3.12;;
47760;SDS011;33524;55.434;38.520;2023-06-26T14:33:42;6.43;;;3.97;;
47760;SDS011;33524;55.434;38.520;2023-06-26T14:36:10;9.70;;;3.67;;
47760;SDS011;33524;55.434;38.520;2023-06-26T14:38:38;4.07;;;3.03;;
47760;SDS011;33524;55.434;38.520;2023-06-26T14:41:07;4.60;;;3.78;;
47760;SDS011;33524;55.434;38.520;2023-06-26T14:43:36;4.78;;;3.25;;
47760;SDS011;33524;55.434;38.520;2023-06-26T14:46:04;5.07;;;3.60;;
47760;SDS011;33524;55.434;38.520;2023-06-26T14:48:33;5.22;;;3.60;;
47760;SDS011;33524;55.434;38.520;2023-06-26T14:51:01;5.75;;;3.85;;
47760;SDS011;33524;55.434;38.520;2023-06-26T14:53:30;7.05;;;3.35;;
47760;SDS011;33524;55.434;38.520;2023-06-26T14:55:58;6.53;;;3.80;;
47760;SDS011;33524;55.434;38.520;2023-06-26T14:58:26;6.47;;;3.75;;
47760;SDS011;33524;55.434;38.520;2023-06-26T15:00:54;5.20;;;3.78;;
47760;SDS011;33524;55.434;38.520;2023-06-26T15:03:26;5.75;;;3.90;;
47760;SDS011;33524;55.434;38.520;2023-06-26T15:08:22;4.93;;;3.85;;
47760;SDS011;33524;55.434;38.520;2023-06-26T15:10:50;5.10;;;3.75;;
47760;SDS011;33524;55.434;38.520;2023-06-26T15:13:22;4.90;;;3.62;;
47760;SDS011;33524;55.434;38.520;2023-06-26T15:15:50;5.15;;;3.53;;